createdAt,value
2023-02-27T00:01:16.230Z,103049.16
2023-02-27T00:03:42.753Z,103049.03
2023-02-27T00:06:09.163Z,103045.78
2023-02-27T00:08:35.504Z,103053.31
2023-02-27T00:11:01.885Z,103051.19
2023-02-27T00:13:28.298Z,103052.41
2023-02-27T00:15:56.199Z,103056.06
2023-02-27T00:18:23.045Z,103050.72
2023-02-27T00:20:49.424Z,103059.69
2023-02-27T00:23:15.863Z,103054.88
2023-02-27T00:25:42.238Z,103046.41
2023-02-27T00:28:08.596Z,103048.63
2023-02-27T00:30:34.995Z,103041.59
2023-02-27T00:33:01.594Z,103041.00
2023-02-27T00:35:28.011Z,103046.81
2023-02-27T00:37:54.398Z,103046.38
2023-02-27T00:40:20.857Z,103044.81
2023-02-27T00:42:49.303Z,103046.06
2023-02-27T00:45:15.729Z,103046.41
2023-02-27T00:47:42.212Z,103044.25
2023-02-27T00:50:09.940Z,103041.03
2023-02-27T00:52:36.418Z,103040.66
2023-02-27T00:55:02.828Z,103036.69
2023-02-27T00:57:29.260Z,103039.75
2023-02-27T00:59:55.626Z,103034.25
2023-02-27T01:02:22.309Z,103034.97
2023-02-27T01:04:49.036Z,103032.69
2023-02-27T01:07:15.523Z,103039.25
2023-02-27T01:09:41.920Z,103034.16
2023-02-27T01:12:08.466Z,103036.34
2023-02-27T01:14:34.845Z,103035.41
2023-02-27T01:17:01.395Z,103042.06
2023-02-27T01:19:27.788Z,103041.47
2023-02-27T01:21:54.242Z,103038.94
2023-02-27T01:24:21.874Z,103036.38
2023-02-27T01:26:48.709Z,103037.47
2023-02-27T01:29:15.547Z,103043.28
2023-02-27T01:31:42.570Z,103043.44
2023-02-27T01:34:09.065Z,103041.88
2023-02-27T01:36:35.425Z,103044.03
2023-02-27T01:39:01.763Z,103035.34
2023-02-27T01:41:29.082Z,103029.41
2023-02-27T01:43:58.560Z,103036.53
2023-02-27T01:46:26.123Z,103029.53
2023-02-27T01:48:59.455Z,103027.81
2023-02-27T01:51:31.113Z,103026.72
2023-02-27T01:53:58.263Z,103027.47
2023-02-27T01:56:27.720Z,103028.31
2023-02-27T01:58:58.108Z,103032.81
2023-02-27T02:01:25.495Z,103026.72
2023-02-27T02:04:12.815Z,103024.22
2023-02-27T02:06:42.240Z,103022.75
2023-02-27T02:09:10.555Z,103028.31
2023-02-27T02:11:37.421Z,103033.84
2023-02-27T02:14:03.832Z,103028.78
2023-02-27T02:16:43.992Z,103025.88
2023-02-27T02:19:47.244Z,103028.28
2023-02-27T02:22:28.727Z,103033.34
2023-02-27T02:25:19.721Z,103030.91
2023-02-27T02:27:58.384Z,103027.63
2023-02-27T02:30:24.900Z,103033.09
2023-02-27T02:33:20.458Z,103035.63
2023-02-27T02:35:52.720Z,103028.25
2023-02-27T02:38:34.259Z,103025.50
2023-02-27T02:41:21.766Z,103032.50
2023-02-27T02:43:54.495Z,103034.44
2023-02-27T02:46:32.950Z,103033.09
2023-02-27T02:49:16.464Z,103033.91
2023-02-27T02:52:02.190Z,103037.16
2023-02-27T02:54:37.290Z,103044.59
2023-02-27T02:57:10.340Z,103044.94
2023-02-27T02:59:45.133Z,103044.84
2023-02-27T03:02:19.443Z,103046.66
2023-02-27T03:04:53.220Z,103045.44
2023-02-27T03:07:36.647Z,103034.63
2023-02-27T03:10:15.465Z,103032.81
2023-02-27T03:12:46.496Z,103037.94
2023-02-27T03:15:46.823Z,103041.19
2023-02-27T03:18:25.347Z,103042.91
2023-02-27T03:20:57.171Z,103041.19
2023-02-27T03:23:31.297Z,103039.72
2023-02-27T03:25:58.596Z,103046.13
2023-02-27T03:28:29.392Z,103032.72
2023-02-27T03:31:01.584Z,103037.81
2023-02-27T03:33:35.075Z,103037.81
2023-02-27T03:36:37.568Z,103030.44
2023-02-27T03:39:21.961Z,103034.81
2023-02-27T03:42:14.410Z,103028.63
2023-02-27T03:45:04.406Z,103035.16
2023-02-27T03:47:32.737Z,103034.63
2023-02-27T03:49:59.384Z,103027.00
2023-02-27T03:52:28.389Z,103026.38
2023-02-27T03:55:04.106Z,103021.41
2023-02-27T03:57:31.761Z,103017.69
2023-02-27T03:59:58.988Z,103019.88
2023-02-27T04:02:26.826Z,103031.88
2023-02-27T04:04:53.247Z,103034.63
2023-02-27T04:07:31.968Z,103040.69
2023-02-27T04:10:20.081Z,103048.69
2023-02-27T04:13:08.399Z,103041.88
2023-02-27T04:16:00.538Z,103048.09
2023-02-27T04:18:51.848Z,103062.75
2023-02-27T04:21:25.371Z,103061.41
2023-02-27T04:23:58.410Z,103060.16
2023-02-27T04:26:32.847Z,103061.88
2023-02-27T04:29:05.398Z,103068.66
2023-02-27T04:31:52.725Z,103068.22
2023-02-27T04:34:38.879Z,103066.06
2023-02-27T04:37:28.510Z,103065.84
2023-02-27T04:40:05.327Z,103075.31
2023-02-27T04:42:35.768Z,103073.47
2023-02-27T04:45:08.308Z,103073.47
2023-02-27T04:47:45.877Z,103073.72
2023-02-27T04:50:23.897Z,103075.63
2023-02-27T04:52:57.264Z,103076.69
2023-02-27T04:55:29.007Z,103084.66
2023-02-27T04:58:12.795Z,103088.69
2023-02-27T05:00:44.405Z,103087.72
2023-02-27T05:03:16.563Z,103087.94
2023-02-27T05:05:47.758Z,103083.81
2023-02-27T05:08:39.296Z,103083.63
2023-02-27T05:11:18.485Z,103087.06
2023-02-27T05:13:51.332Z,103089.09
2023-02-27T05:16:54.276Z,103086.13
2023-02-27T05:19:20.858Z,103093.66
2023-02-27T05:21:57.178Z,103094.72
2023-02-27T05:24:32.952Z,103092.09
2023-02-27T05:27:28.730Z,103092.09
2023-02-27T05:30:23.534Z,103097.19
2023-02-27T05:33:09.247Z,103097.38
2023-02-27T05:35:47.685Z,103098.25
2023-02-27T05:38:37.061Z,103101.63
2023-02-27T05:41:17.954Z,103096.75
2023-02-27T05:43:50.406Z,103107.16
2023-02-27T05:46:39.047Z,103107.16
2023-02-27T05:49:15.938Z,103097.47
2023-02-27T05:51:46.325Z,103105.44
2023-02-27T05:54:38.291Z,103105.44
2023-02-27T05:57:09.963Z,103101.72
2023-02-27T05:59:47.744Z,103114.88
2023-02-27T06:02:14.344Z,103111.59
2023-02-27T06:04:41.492Z,103109.03
2023-02-27T06:07:08.653Z,103107.25
2023-02-27T06:09:35.889Z,103110.53
2023-02-27T06:12:02.514Z,103107.75
2023-02-27T06:14:28.914Z,103122.63
2023-02-27T06:16:55.324Z,103126.25
2023-02-27T06:19:21.829Z,103134.09
2023-02-27T06:21:48.704Z,103139.13
2023-02-27T06:24:15.114Z,103143.22
2023-02-27T06:26:41.509Z,103154.50
2023-02-27T06:29:07.837Z,103159.38
2023-02-27T06:31:34.171Z,103162.03
2023-02-27T06:34:00.540Z,103160.22
2023-02-27T06:36:29.479Z,103170.84
2023-02-27T06:38:56.201Z,103165.34
2023-02-27T06:41:22.553Z,103168.09
2023-02-27T06:43:49.184Z,103162.97
2023-02-27T06:46:15.647Z,103170.84
2023-02-27T06:48:42.110Z,103162.78
2023-02-27T06:51:08.461Z,103164.34
2023-02-27T06:53:34.825Z,103172.09
2023-02-27T06:56:01.208Z,103168.50
2023-02-27T06:58:27.698Z,103168.28
2023-02-27T07:00:54.116Z,103172.94
2023-02-27T07:03:20.602Z,103170.91
2023-02-27T07:05:47.020Z,103173.13
2023-02-27T07:08:13.809Z,103170.97
2023-02-27T07:10:42.863Z,103173.31
2023-02-27T07:13:09.297Z,103184.13
2023-02-27T07:15:35.728Z,103177.72
2023-02-27T07:18:02.522Z,103169.88
2023-02-27T07:20:28.940Z,103171.00
2023-02-27T07:22:55.338Z,103176.28
2023-02-27T07:25:21.884Z,103177.06
2023-02-27T07:27:50.632Z,103180.38
2023-02-27T07:30:18.350Z,103179.81
2023-02-27T07:32:44.846Z,103174.84
2023-02-27T07:35:11.961Z,103187.84
2023-02-27T07:37:38.399Z,103176.16
2023-02-27T07:40:07.483Z,103178.25
2023-02-27T07:42:34.529Z,103176.13
2023-02-27T07:45:01.079Z,103184.16
2023-02-27T07:47:27.541Z,103182.75
2023-02-27T07:49:53.984Z,103180.69
2023-02-27T07:52:20.602Z,103175.84
2023-02-27T07:54:47.016Z,103179.59
2023-02-27T07:57:13.770Z,103180.06
2023-02-27T07:59:40.346Z,103179.78
2023-02-27T08:02:07.410Z,103177.22
2023-02-27T08:04:33.880Z,103180.22
2023-02-27T08:07:00.654Z,103180.38
2023-02-27T08:09:27.050Z,103175.97
2023-02-27T08:11:53.414Z,103191.50
2023-02-27T08:14:20.392Z,103189.03
2023-02-27T08:16:46.851Z,103182.88
2023-02-27T08:19:14.681Z,103185.59
2023-02-27T08:21:41.303Z,103184.53
2023-02-27T08:24:07.688Z,103188.56
2023-02-27T08:26:34.261Z,103196.38
2023-02-27T08:29:00.731Z,103191.59
2023-02-27T08:31:27.217Z,103192.06
2023-02-27T08:34:01.006Z,103191.25
2023-02-27T08:36:34.286Z,103196.06
2023-02-27T08:39:00.697Z,103197.63
2023-02-27T08:41:27.119Z,103196.03
2023-02-27T08:43:53.503Z,103194.47
2023-02-27T08:46:20.279Z,103201.94
2023-02-27T08:48:46.674Z,103204.03
2023-02-27T08:51:13.073Z,103211.00
2023-02-27T08:53:39.433Z,103211.03
2023-02-27T08:56:06.158Z,103206.34
2023-02-27T08:58:32.641Z,103212.94
2023-02-27T09:00:59.090Z,103221.94
2023-02-27T09:03:28.470Z,103210.97
2023-02-27T09:05:56.109Z,103213.81
2023-02-27T09:08:23.343Z,103214.06
2023-02-27T09:10:49.672Z,103219.25
2023-02-27T09:13:16.123Z,103218.22
2023-02-27T09:15:42.483Z,103223.38
2023-02-27T09:18:09.872Z,103224.97
2023-02-27T09:20:36.448Z,103216.38
2023-02-27T09:23:03.765Z,103214.78
2023-02-27T09:25:30.146Z,103214.44
2023-02-27T09:27:56.605Z,103218.38
2023-02-27T09:30:23.746Z,103218.03
2023-02-27T09:32:50.310Z,103224.81
2023-02-27T09:35:17.466Z,103218.75
2023-02-27T09:37:44.217Z,103224.06
2023-02-27T09:40:20.791Z,103212.97
2023-02-27T09:42:48.535Z,103219.97
2023-02-27T09:45:25.849Z,103219.13
2023-02-27T09:47:58.415Z,103214.91
2023-02-27T09:50:34.122Z,103219.03
2023-02-27T09:53:00.959Z,103221.44
2023-02-27T09:55:32.253Z,103220.22
2023-02-27T09:58:24.869Z,103219.00
2023-02-27T10:00:56.316Z,103218.56
2023-02-27T10:03:41.717Z,103218.00
2023-02-27T10:06:31.134Z,103221.06
2023-02-27T10:09:15.794Z,103220.78
2023-02-27T10:12:06.411Z,103224.91
2023-02-27T10:14:33.689Z,103221.47
2023-02-27T10:17:04.015Z,103227.72
2023-02-27T10:19:37.563Z,103228.63
2023-02-27T10:22:10.058Z,103223.63
2023-02-27T10:24:48.750Z,103227.50
2023-02-27T10:27:21.689Z,103220.41
2023-02-27T10:29:48.796Z,103216.03
2023-02-27T10:32:24.863Z,103213.38
2023-02-27T10:35:06.472Z,103220.03
2023-02-27T10:37:36.030Z,103222.44
2023-02-27T10:40:04.824Z,103230.31
2023-02-27T10:42:36.376Z,103227.50
2023-02-27T10:45:04.821Z,103225.25
2023-02-27T10:47:31.498Z,103231.06
2023-02-27T10:50:00.249Z,103229.44
2023-02-27T10:52:26.640Z,103229.81
2023-02-27T10:54:53.066Z,103233.63
2023-02-27T10:57:25.666Z,103236.31
2023-02-27T10:59:58.961Z,103233.00
2023-02-27T11:02:33.820Z,103221.63
2023-02-27T11:05:00.504Z,103227.09
2023-02-27T11:07:37.239Z,103220.03
2023-02-27T11:10:06.785Z,103208.03
2023-02-27T11:12:34.799Z,103210.78
2023-02-27T11:15:22.292Z,103205.44
2023-02-27T11:17:48.670Z,103207.44
2023-02-27T11:20:30.273Z,103199.75
2023-02-27T11:23:14.825Z,103196.84
2023-02-27T11:25:41.855Z,103183.06
2023-02-27T11:28:23.530Z,103180.72
2023-02-27T11:31:00.142Z,103182.41
2023-02-27T11:33:29.383Z,103166.53
2023-02-27T11:35:58.497Z,103171.16
2023-02-27T11:38:29.812Z,103165.63
2023-02-27T11:41:00.226Z,103164.06
2023-02-27T11:43:29.644Z,103147.94
2023-02-27T11:46:05.218Z,103151.38
2023-02-27T11:48:50.891Z,103151.66
2023-02-27T11:51:49.510Z,103139.59
2023-02-27T11:54:21.961Z,103141.00
2023-02-27T11:57:06.076Z,103137.44
2023-02-27T11:59:51.774Z,103129.91
2023-02-27T12:02:28.918Z,103136.50
2023-02-27T12:05:01.869Z,103130.78
2023-02-27T12:07:37.390Z,103134.69
2023-02-27T12:10:18.880Z,103128.66
2023-02-27T12:12:48.471Z,103123.63
2023-02-27T12:15:30.391Z,103122.50
2023-02-27T12:18:10.793Z,103114.75
2023-02-27T12:20:59.527Z,103120.41
2023-02-27T12:23:37.856Z,103121.31
2023-02-27T12:26:17.959Z,103131.94
2023-02-27T12:28:44.230Z,103130.19
2023-02-27T12:31:35.715Z,103118.97
2023-02-27T12:34:12.117Z,103129.66
2023-02-27T12:36:38.733Z,103130.16
2023-02-27T12:39:05.775Z,103123.31
2023-02-27T12:41:48.198Z,103124.19
2023-02-27T12:44:33.373Z,103113.63
2023-02-27T12:47:15.905Z,103124.16
2023-02-27T12:49:52.655Z,103128.00
2023-02-27T12:52:32.783Z,103129.22
2023-02-27T12:55:30.754Z,103124.50
2023-02-27T12:58:25.506Z,103110.44
2023-02-27T13:00:54.706Z,103108.53
2023-02-27T13:03:31.628Z,103110.59
2023-02-27T13:06:04.577Z,103122.06
2023-02-27T13:08:55.677Z,103109.31
2023-02-27T13:11:37.199Z,103108.47
2023-02-27T13:14:15.148Z,103120.28
2023-02-27T13:16:46.254Z,103108.28
2023-02-27T13:19:23.707Z,103115.38
2023-02-27T13:22:16.154Z,103110.84
2023-02-27T13:24:50.721Z,103111.66
2023-02-27T13:27:37.979Z,103105.19
2023-02-27T13:30:05.446Z,103106.59
2023-02-27T13:32:50.984Z,103109.66
2023-02-27T13:35:26.667Z,103113.88
2023-02-27T13:37:56.609Z,103100.34
2023-02-27T13:40:33.737Z,103100.88
2023-02-27T13:43:24.432Z,103090.53
2023-02-27T13:45:53.609Z,103094.69
2023-02-27T13:48:41.274Z,103087.31
2023-02-27T13:51:39.769Z,103082.59
2023-02-27T13:54:15.457Z,103083.53
2023-02-27T13:56:46.504Z,103092.72
2023-02-27T13:59:17.514Z,103096.19
2023-02-27T14:01:51.709Z,103098.63
2023-02-27T14:04:19.111Z,103097.28
2023-02-27T14:06:47.831Z,103095.09
2023-02-27T14:09:20.291Z,103086.56
2023-02-27T14:11:59.576Z,103082.38
2023-02-27T14:14:44.281Z,103074.66
2023-02-27T14:17:36.669Z,103069.69
2023-02-27T14:20:11.750Z,103068.38
2023-02-27T14:22:41.681Z,103082.25
2023-02-27T14:25:16.137Z,103089.78
2023-02-27T14:27:57.090Z,103101.59
2023-02-27T14:30:38.688Z,103096.78
2023-02-27T14:33:40.482Z,103091.88
2023-02-27T14:36:21.403Z,103082.78
2023-02-27T14:38:49.362Z,103080.00
2023-02-27T14:41:38.056Z,103080.22
2023-02-27T14:44:05.087Z,103094.00
2023-02-27T14:46:39.179Z,103085.16
2023-02-27T14:49:22.153Z,103088.25
2023-02-27T14:51:50.487Z,103079.22
2023-02-27T14:54:23.213Z,103078.75
2023-02-27T14:57:04.519Z,103077.34
2023-02-27T14:59:34.046Z,103082.38
2023-02-27T15:02:04.090Z,103075.31
2023-02-27T15:04:32.858Z,103071.81
2023-02-27T15:07:00.558Z,103082.31
2023-02-27T15:09:44.665Z,103079.59
2023-02-27T15:12:18.167Z,103085.19
2023-02-27T15:14:49.581Z,103087.34
2023-02-27T15:17:21.955Z,103093.22
2023-02-27T15:19:57.065Z,103094.84
2023-02-27T15:22:38.448Z,103098.09
2023-02-27T15:25:07.697Z,103098.44
2023-02-27T15:27:37.331Z,103100.41
2023-02-27T15:30:04.888Z,103110.28
2023-02-27T15:32:33.544Z,103107.84
2023-02-27T15:35:06.405Z,103091.19
2023-02-27T15:37:34.241Z,103094.84
2023-02-27T15:40:01.740Z,103086.44
2023-02-27T15:42:31.757Z,103089.03
2023-02-27T15:44:58.772Z,103091.81
2023-02-27T15:47:30.575Z,103101.50
2023-02-27T15:50:10.587Z,103101.19
2023-02-27T15:52:58.460Z,103106.81
2023-02-27T15:55:29.237Z,103103.78
2023-02-27T15:58:02.702Z,103103.69
2023-02-27T16:00:31.828Z,103105.78
2023-02-27T16:02:59.364Z,103107.88
2023-02-27T16:05:34.994Z,103098.84
2023-02-27T16:08:03.217Z,103098.75
2023-02-27T16:10:35.630Z,103105.91
2023-02-27T16:13:25.234Z,103098.09
2023-02-27T16:16:03.321Z,103104.38
2023-02-27T16:18:47.523Z,103111.81
2023-02-27T16:21:17.555Z,103106.00
2023-02-27T16:23:45.326Z,103103.13
2023-02-27T16:26:23.709Z,103103.28
2023-02-27T16:29:04.754Z,103105.09
2023-02-27T16:31:46.934Z,103104.81
2023-02-27T16:34:16.801Z,103108.69
2023-02-27T16:36:53.229Z,103104.13
2023-02-27T16:39:19.624Z,103102.31
2023-02-27T16:41:46.176Z,103107.03
2023-02-27T16:44:14.386Z,103107.34
2023-02-27T16:46:41.268Z,103117.66
2023-02-27T16:49:20.324Z,103113.59
2023-02-27T16:51:47.272Z,103115.25
2023-02-27T16:54:15.562Z,103107.69
2023-02-27T16:56:44.293Z,103115.09
2023-02-27T16:59:23.276Z,103109.84
2023-02-27T17:01:49.686Z,103119.09
2023-02-27T17:04:25.250Z,103112.22
2023-02-27T17:06:52.624Z,103112.88
2023-02-27T17:09:19.067Z,103117.47
2023-02-27T17:11:45.512Z,103118.72
2023-02-27T17:14:12.316Z,103123.06
2023-02-27T17:16:38.817Z,103129.00
2023-02-27T17:19:05.333Z,103123.94
2023-02-27T17:21:32.725Z,103124.13
2023-02-27T17:23:59.101Z,103124.91
2023-02-27T17:26:27.029Z,103126.41
2023-02-27T17:28:54.763Z,103134.16
2023-02-27T17:31:22.897Z,103133.84
2023-02-27T17:33:53.719Z,103132.53
2023-02-27T17:36:21.684Z,103138.72
2023-02-27T17:38:48.846Z,103142.09
2023-02-27T17:41:17.033Z,103148.59
2023-02-27T17:43:50.632Z,103149.34
2023-02-27T17:46:17.134Z,103148.09
2023-02-27T17:48:43.537Z,103151.22
2023-02-27T17:51:13.757Z,103151.19
2023-02-27T17:53:40.237Z,103148.31
2023-02-27T17:56:07.774Z,103156.59
2023-02-27T17:58:34.449Z,103157.78
2023-02-27T18:01:09.364Z,103161.31
2023-02-27T18:03:35.837Z,103158.44
2023-02-27T18:06:02.721Z,103164.69
2023-02-27T18:08:29.581Z,103163.09
2023-02-27T18:10:55.978Z,103166.03
2023-02-27T18:13:23.626Z,103170.31
2023-02-27T18:15:50.218Z,103170.94
2023-02-27T18:18:16.711Z,103163.94
2023-02-27T18:20:43.244Z,103157.19
2023-02-27T18:23:10.190Z,103171.94
2023-02-27T18:25:37.038Z,103168.59
2023-02-27T18:28:04.163Z,103175.13
2023-02-27T18:30:33.515Z,103170.09
2023-02-27T18:32:59.984Z,103179.28
2023-02-27T18:35:26.744Z,103167.28
2023-02-27T18:37:53.368Z,103170.41
2023-02-27T18:40:24.436Z,103172.41
2023-02-27T18:42:52.415Z,103172.31
2023-02-27T18:45:19.757Z,103176.59
2023-02-27T18:47:47.049Z,103179.38
2023-02-27T18:50:16.003Z,103179.09
2023-02-27T18:52:42.444Z,103187.81
2023-02-27T18:55:09.304Z,103190.91
2023-02-27T18:57:35.710Z,103196.44
2023-02-27T19:00:02.814Z,103194.34
2023-02-27T19:02:29.293Z,103199.53
2023-02-27T19:04:55.710Z,103200.84
2023-02-27T19:07:23.280Z,103203.00
2023-02-27T19:09:49.721Z,103205.41
2023-02-27T19:12:16.111Z,103201.63
2023-02-27T19:14:42.648Z,103205.00
2023-02-27T19:17:09.073Z,103202.72
2023-02-27T19:19:35.526Z,103206.06
2023-02-27T19:22:01.944Z,103203.53
2023-02-27T19:24:28.378Z,103206.91
2023-02-27T19:26:54.763Z,103205.63
2023-02-27T19:29:21.345Z,103209.41
2023-02-27T19:31:47.831Z,103200.28
2023-02-27T19:34:14.822Z,103207.59
2023-02-27T19:36:41.808Z,103208.94
2023-02-27T19:39:08.459Z,103208.94
2023-02-27T19:41:34.944Z,103209.78
2023-02-27T19:44:01.506Z,103205.59
2023-02-27T19:46:31.175Z,103209.44
2023-02-27T19:49:00.792Z,103211.56
2023-02-27T19:51:27.678Z,103217.53
2023-02-27T19:53:54.396Z,103217.69
2023-02-27T19:56:23.459Z,103218.28
2023-02-27T19:58:50.979Z,103218.41
2023-02-27T20:01:27.024Z,103220.97
2023-02-27T20:03:55.083Z,103226.22
2023-02-27T20:06:23.763Z,103227.19
2023-02-27T20:08:51.505Z,103225.09
2023-02-27T20:11:19.706Z,103225.81
2023-02-27T20:13:46.902Z,103232.16
2023-02-27T20:16:15.621Z,103228.53
2023-02-27T20:18:42.684Z,103229.63
2023-02-27T20:21:15.794Z,103226.53
2023-02-27T20:23:46.481Z,103228.66
2023-02-27T20:26:22.136Z,103227.91
2023-02-27T20:28:51.864Z,103230.59
2023-02-27T20:31:21.178Z,103235.72
2023-02-27T20:33:49.183Z,103232.03
2023-02-27T20:36:16.019Z,103227.38
2023-02-27T20:38:43.158Z,103220.34
2023-02-27T20:41:15.754Z,103227.94
2023-02-27T20:43:45.651Z,103224.28
2023-02-27T20:46:16.596Z,103228.78
2023-02-27T20:48:43.856Z,103230.06
2023-02-27T20:51:21.848Z,103224.41
2023-02-27T20:53:51.784Z,103222.97
2023-02-27T20:56:20.392Z,103221.69
2023-02-27T20:58:46.992Z,103229.16
2023-02-27T21:01:15.356Z,103226.63
2023-02-27T21:03:44.166Z,103230.69
2023-02-27T21:06:13.466Z,103231.13
2023-02-27T21:08:41.917Z,103232.84
2023-02-27T21:11:14.379Z,103227.63
2023-02-27T21:13:41.223Z,103225.06
2023-02-27T21:16:10.473Z,103231.69
2023-02-27T21:18:38.285Z,103223.78
2023-02-27T21:21:07.296Z,103226.56
2023-02-27T21:23:34.441Z,103238.34
2023-02-27T21:26:00.882Z,103232.94
2023-02-27T21:28:27.247Z,103235.19
2023-02-27T21:30:54.652Z,103231.47
2023-02-27T21:33:24.193Z,103231.56
2023-02-27T21:35:50.601Z,103239.59
2023-02-27T21:38:17.006Z,103236.47
2023-02-27T21:40:43.512Z,103236.75
2023-02-27T21:43:09.981Z,103234.47
2023-02-27T21:45:41.400Z,103242.63
2023-02-27T21:48:08.127Z,103244.56
2023-02-27T21:50:35.842Z,103250.19
2023-02-27T21:53:02.231Z,103248.75
2023-02-27T21:55:28.670Z,103249.00
2023-02-27T21:57:55.056Z,103243.91
2023-02-27T22:00:23.125Z,103250.38
2023-02-27T22:02:49.498Z,103257.09
2023-02-27T22:05:15.969Z,103254.41
2023-02-27T22:07:42.565Z,103250.31
2023-02-27T22:10:09.783Z,103252.53
2023-02-27T22:12:36.169Z,103253.38
2023-02-27T22:15:02.674Z,103249.13
2023-02-27T22:17:29.211Z,103241.78
2023-02-27T22:19:55.601Z,103238.75
2023-02-27T22:22:21.941Z,103244.50
2023-02-27T22:24:48.319Z,103239.41
2023-02-27T22:27:14.645Z,103236.88
2023-02-27T22:29:42.333Z,103241.13
2023-02-27T22:32:09.464Z,103235.78
2023-02-27T22:34:35.984Z,103244.91
2023-02-27T22:37:02.386Z,103245.84
2023-02-27T22:39:28.832Z,103244.16
2023-02-27T22:41:56.825Z,103258.91
2023-02-27T22:44:23.271Z,103260.25
2023-02-27T22:46:50.119Z,103261.13
2023-02-27T22:49:21.817Z,103260.47
2023-02-27T22:51:51.035Z,103264.47
2023-02-27T22:54:19.195Z,103251.44
2023-02-27T22:56:45.563Z,103248.63
2023-02-27T22:59:12.095Z,103256.19
2023-02-27T23:01:38.581Z,103257.06
2023-02-27T23:04:07.899Z,103257.66
2023-02-27T23:06:37.052Z,103259.31
2023-02-27T23:09:06.027Z,103255.09
2023-02-27T23:11:32.488Z,103266.03
2023-02-27T23:13:59.157Z,103268.59
2023-02-27T23:16:25.974Z,103260.19
2023-02-27T23:18:56.031Z,103264.31
2023-02-27T23:21:25.551Z,103274.28
2023-02-27T23:23:57.931Z,103264.94
2023-02-27T23:26:28.217Z,103270.59
2023-02-27T23:28:56.024Z,103270.97
2023-02-27T23:31:22.647Z,103273.22
2023-02-27T23:33:49.070Z,103269.09
2023-02-27T23:36:15.459Z,103271.50
2023-02-27T23:38:43.032Z,103267.56
2023-02-27T23:41:09.896Z,103268.94
2023-02-27T23:43:36.630Z,103278.97
2023-02-27T23:46:10.642Z,103268.50
2023-02-27T23:48:36.989Z,103269.16
2023-02-27T23:51:05.740Z,103267.06
2023-02-27T23:53:34.310Z,103267.00
2023-02-27T23:56:00.987Z,103267.44
2023-02-27T23:58:27.424Z,103264.78
